createdAt,value
2023-02-06T00:00:55.177Z,99881.66
2023-02-06T00:03:22.641Z,99866.94
2023-02-06T00:05:59.266Z,99873.84
2023-02-06T00:08:27.029Z,99886.44
2023-02-06T00:10:54.838Z,99885.56
2023-02-06T00:13:22.511Z,99885.50
2023-02-06T00:15:50.288Z,99884.66
2023-02-06T00:18:17.919Z,99880.53
2023-02-06T00:20:45.366Z,99881.31
2023-02-06T00:23:14.180Z,99879.31
2023-02-06T00:25:41.730Z,99884.97
2023-02-06T00:28:09.284Z,99890.84
2023-02-06T00:30:36.872Z,99892.00
2023-02-06T00:33:04.526Z,99891.88
2023-02-06T00:35:31.995Z,99894.66
2023-02-06T00:37:59.994Z,99890.41
2023-02-06T00:40:28.885Z,99893.09
2023-02-06T00:42:56.330Z,99880.88
2023-02-06T00:45:23.774Z,99882.88
2023-02-06T00:47:51.249Z,99884.59
2023-02-06T00:50:18.962Z,99882.25
2023-02-06T00:52:46.960Z,99878.78
2023-02-06T00:55:14.771Z,99879.63
2023-02-06T00:57:43.572Z,99882.25
2023-02-06T01:00:12.492Z,99873.44
2023-02-06T01:02:39.955Z,99875.38
2023-02-06T01:05:07.810Z,99871.19
2023-02-06T01:07:38.491Z,99860.63
2023-02-06T01:10:08.037Z,99859.84
2023-02-06T01:12:36.249Z,99853.81
2023-02-06T01:15:05.824Z,99854.44
2023-02-06T01:17:34.663Z,99859.94
2023-02-06T01:20:02.529Z,99866.16
2023-02-06T01:22:29.982Z,99866.31
2023-02-06T01:24:57.426Z,99859.56
2023-02-06T01:27:25.067Z,99856.91
2023-02-06T01:29:52.577Z,99859.97
2023-02-06T01:32:21.408Z,99868.56
2023-02-06T01:34:48.851Z,99877.50
2023-02-06T01:37:16.338Z,99874.06
2023-02-06T01:39:43.804Z,99882.94
2023-02-06T01:42:12.048Z,99880.88
2023-02-06T01:44:39.728Z,99879.44
2023-02-06T01:47:07.160Z,99875.00
2023-02-06T01:49:39.168Z,99870.50
2023-02-06T01:52:14.636Z,99871.75
2023-02-06T01:54:43.331Z,99870.81
2023-02-06T01:57:13.714Z,99877.03
2023-02-06T01:59:45.610Z,99875.69
2023-02-06T02:02:14.154Z,99875.84
2023-02-06T02:04:43.415Z,99884.47
2023-02-06T02:07:13.294Z,99879.34
2023-02-06T02:09:40.792Z,99880.34
2023-02-06T02:12:08.346Z,99890.97
2023-02-06T02:14:36.669Z,99882.00
2023-02-06T02:17:20.528Z,99878.19
2023-02-06T02:20:13.234Z,99878.94
2023-02-06T02:23:01.532Z,99887.88
2023-02-06T02:26:06.628Z,99870.72
2023-02-06T02:29:15.802Z,99857.31
2023-02-06T02:32:09.224Z,99857.31
2023-02-06T02:34:57.903Z,99859.16
2023-02-06T02:37:35.836Z,99854.00
2023-02-06T02:40:12.214Z,99853.19
2023-02-06T02:42:48.902Z,99854.91
2023-02-06T02:45:21.942Z,99852.50
2023-02-06T02:47:56.716Z,99850.94
2023-02-06T02:50:26.297Z,99861.50
2023-02-06T02:52:54.086Z,99856.59
2023-02-06T02:55:23.920Z,99854.19
2023-02-06T02:57:56.842Z,99852.25
2023-02-06T03:00:26.527Z,99852.41
2023-02-06T03:02:58.135Z,99853.09
2023-02-06T03:05:27.908Z,99854.97
2023-02-06T03:08:12.873Z,99861.94
2023-02-06T03:10:48.064Z,99860.38
2023-02-06T03:13:22.009Z,99870.78
2023-02-06T03:15:57.379Z,99864.03
2023-02-06T03:18:32.456Z,99865.09
2023-02-06T03:21:04.723Z,99862.91
2023-02-06T03:23:37.587Z,99857.47
2023-02-06T03:26:12.031Z,99852.09
2023-02-06T03:28:44.435Z,99841.75
2023-02-06T03:31:16.734Z,99855.47
2023-02-06T03:33:53.044Z,99852.44
2023-02-06T03:36:22.419Z,99837.78
2023-02-06T03:38:53.740Z,99846.53
2023-02-06T03:41:26.754Z,99845.84
2023-02-06T03:43:56.210Z,99852.03
2023-02-06T03:46:25.156Z,99853.31
2023-02-06T03:48:58.245Z,99863.34
2023-02-06T03:51:30.846Z,99873.25
2023-02-06T03:54:00.851Z,99874.88
2023-02-06T03:56:34.890Z,99879.78
2023-02-06T03:59:02.610Z,99918.28
2023-02-06T04:01:30.477Z,99915.94
2023-02-06T04:03:58.934Z,99910.63
2023-02-06T04:06:27.863Z,99914.63
2023-02-06T04:08:55.306Z,99907.91
2023-02-06T04:11:22.751Z,99908.19
2023-02-06T04:13:50.239Z,99910.31
2023-02-06T04:16:17.830Z,99906.50
2023-02-06T04:18:45.297Z,99909.59
2023-02-06T04:21:12.748Z,99901.38
2023-02-06T04:23:41.509Z,99897.00
2023-02-06T04:26:08.958Z,99905.47
2023-02-06T04:28:36.378Z,99905.91
2023-02-06T04:31:04.023Z,99898.41
2023-02-06T04:33:31.505Z,99906.16
2023-02-06T04:35:58.950Z,99907.63
2023-02-06T04:38:26.437Z,99909.59
2023-02-06T04:40:55.251Z,99894.56
2023-02-06T04:43:22.691Z,99884.38
2023-02-06T04:45:50.162Z,99879.41
2023-02-06T04:48:17.630Z,99870.94
2023-02-06T04:50:45.083Z,99872.72
2023-02-06T04:53:12.515Z,99873.13
2023-02-06T04:55:39.979Z,99885.44
2023-02-06T04:58:08.805Z,99888.38
2023-02-06T05:00:38.679Z,99894.06
2023-02-06T05:03:06.252Z,99894.44
2023-02-06T05:05:33.974Z,99892.97
2023-02-06T05:08:01.611Z,99893.97
2023-02-06T05:10:29.023Z,99879.59
2023-02-06T05:12:57.005Z,99883.25
2023-02-06T05:15:25.854Z,99883.06
2023-02-06T05:17:53.284Z,99873.97
2023-02-06T05:20:21.145Z,99861.38
2023-02-06T05:22:48.615Z,99858.09
2023-02-06T05:25:16.078Z,99863.22
2023-02-06T05:27:43.545Z,99861.94
2023-02-06T05:30:12.606Z,99862.94
2023-02-06T05:32:41.883Z,99865.78
2023-02-06T05:35:09.368Z,99860.00
2023-02-06T05:37:38.388Z,99858.91
2023-02-06T05:40:06.427Z,99875.59
2023-02-06T05:42:33.875Z,99873.94
2023-02-06T05:45:01.432Z,99892.00
2023-02-06T05:47:29.042Z,99898.38
2023-02-06T05:49:57.793Z,99892.72
2023-02-06T05:52:25.243Z,99900.94
2023-02-06T05:54:52.693Z,99898.34
2023-02-06T05:57:20.181Z,99906.91
2023-02-06T05:59:47.637Z,99900.75
2023-02-06T06:02:15.435Z,99908.00
2023-02-06T06:04:42.864Z,99908.94
2023-02-06T06:07:11.696Z,99905.00
2023-02-06T06:09:39.323Z,99904.16
2023-02-06T06:12:07.258Z,99911.00
2023-02-06T06:14:34.780Z,99901.81
2023-02-06T06:17:02.219Z,99906.00
2023-02-06T06:19:29.682Z,99906.44
2023-02-06T06:21:58.333Z,99905.13
2023-02-06T06:24:27.485Z,99900.94
2023-02-06T06:26:55.345Z,99891.59
2023-02-06T06:29:22.854Z,99886.97
2023-02-06T06:31:50.337Z,99873.44
2023-02-06T06:34:17.804Z,99882.50
2023-02-06T06:36:45.351Z,99887.31
2023-02-06T06:39:12.949Z,99880.91
2023-02-06T06:41:41.795Z,99896.50
2023-02-06T06:44:09.330Z,99882.41
2023-02-06T06:46:36.862Z,99876.56
2023-02-06T06:49:05.074Z,99882.84
2023-02-06T06:51:32.565Z,99880.41
2023-02-06T06:54:00.028Z,99891.72
2023-02-06T06:56:27.886Z,99875.31
2023-02-06T06:58:57.397Z,99890.28
2023-02-06T07:01:24.990Z,99888.25
2023-02-06T07:03:52.462Z,99890.81
2023-02-06T07:06:19.956Z,99883.50
2023-02-06T07:08:47.401Z,99880.22
2023-02-06T07:11:16.847Z,99889.84
2023-02-06T07:13:44.895Z,99891.13
2023-02-06T07:16:14.092Z,99895.31
2023-02-06T07:18:42.887Z,99897.06
2023-02-06T07:21:11.025Z,99888.81
2023-02-06T07:23:38.526Z,99886.69
2023-02-06T07:26:06.650Z,99878.72
2023-02-06T07:28:34.964Z,99876.16
2023-02-06T07:31:02.937Z,99886.28
2023-02-06T07:33:31.888Z,99886.06
2023-02-06T07:36:01.166Z,99880.81
2023-02-06T07:38:29.550Z,99875.25
2023-02-06T07:41:01.884Z,99874.63
2023-02-06T07:43:29.642Z,99869.06
2023-02-06T07:45:59.902Z,99863.97
2023-02-06T07:48:27.557Z,99860.41
2023-02-06T07:50:58.598Z,99867.44
2023-02-06T07:53:26.043Z,99871.09
2023-02-06T07:55:53.479Z,99869.34
2023-02-06T07:58:20.948Z,99886.38
2023-02-06T08:00:48.429Z,99883.34
2023-02-06T08:03:15.906Z,99887.97
2023-02-06T08:05:43.345Z,99892.50
2023-02-06T08:08:12.115Z,99898.63
2023-02-06T08:10:39.653Z,99897.38
2023-02-06T08:13:07.750Z,99908.59
2023-02-06T08:15:35.714Z,99911.94
2023-02-06T08:18:03.438Z,99912.53
2023-02-06T08:20:30.965Z,99911.56
2023-02-06T08:22:58.432Z,99916.19
2023-02-06T08:25:27.331Z,99911.28
2023-02-06T08:27:54.870Z,99910.75
2023-02-06T08:30:22.937Z,99913.03
2023-02-06T08:32:50.427Z,99905.53
2023-02-06T08:35:18.219Z,99900.28
2023-02-06T08:37:45.668Z,99894.03
2023-02-06T08:40:13.479Z,99884.00
2023-02-06T08:42:42.278Z,99883.97
2023-02-06T08:45:10.591Z,99885.63
2023-02-06T08:47:38.042Z,99881.22
2023-02-06T08:50:06.049Z,99870.19
2023-02-06T08:52:33.482Z,99868.31
2023-02-06T08:55:00.935Z,99869.97
2023-02-06T08:57:28.362Z,99864.75
2023-02-06T08:59:57.491Z,99857.66
2023-02-06T09:02:24.969Z,99848.63
2023-02-06T09:04:52.505Z,99847.28
2023-02-06T09:07:21.591Z,99860.09
2023-02-06T09:09:49.106Z,99866.31
2023-02-06T09:12:16.627Z,99868.47
2023-02-06T09:14:44.341Z,99861.81
2023-02-06T09:17:13.161Z,99865.47
2023-02-06T09:19:40.707Z,99853.97
2023-02-06T09:22:08.156Z,99858.47
2023-02-06T09:24:35.614Z,99858.88
2023-02-06T09:27:03.093Z,99839.19
2023-02-06T09:29:31.993Z,99833.81
2023-02-06T09:32:00.158Z,99826.59
2023-02-06T09:34:29.883Z,99821.31
2023-02-06T09:36:57.701Z,99833.09
2023-02-06T09:39:26.341Z,99827.72
2023-02-06T09:41:55.868Z,99832.19
2023-02-06T09:44:29.043Z,99816.69
2023-02-06T09:47:00.546Z,99815.59
2023-02-06T09:49:36.363Z,99799.03
2023-02-06T09:52:16.820Z,99803.97
2023-02-06T09:54:52.413Z,99793.81
2023-02-06T09:57:26.707Z,99802.44
2023-02-06T10:00:00.511Z,99800.16
2023-02-06T10:02:48.415Z,99795.28
2023-02-06T10:05:25.576Z,99792.56
2023-02-06T10:08:04.106Z,99781.34
2023-02-06T10:10:39.358Z,99780.72
2023-02-06T10:13:15.435Z,99780.88
2023-02-06T10:15:46.244Z,99781.69
2023-02-06T10:18:18.719Z,99771.16
2023-02-06T10:20:53.552Z,99767.19
2023-02-06T10:23:25.279Z,99767.69
2023-02-06T10:26:04.512Z,99762.13
2023-02-06T10:28:33.589Z,99758.31
2023-02-06T10:31:21.238Z,99755.00
2023-02-06T10:33:58.517Z,99760.19
2023-02-06T10:36:38.171Z,99749.38
2023-02-06T10:39:27.297Z,99751.59
2023-02-06T10:42:03.696Z,99743.88
2023-02-06T10:44:35.359Z,99730.06
2023-02-06T10:47:03.292Z,99725.88
2023-02-06T10:49:36.222Z,99722.75
2023-02-06T10:52:19.143Z,99723.16
2023-02-06T10:54:54.293Z,99713.72
2023-02-06T10:57:25.253Z,99727.50
2023-02-06T10:59:59.211Z,99720.69
2023-02-06T11:02:31.398Z,99716.94
2023-02-06T11:05:06.258Z,99705.50
2023-02-06T11:07:39.822Z,99700.53
2023-02-06T11:10:08.430Z,99709.50
2023-02-06T11:12:40.184Z,99701.25
2023-02-06T11:15:25.114Z,99691.19
2023-02-06T11:17:53.773Z,99690.38
2023-02-06T11:20:23.979Z,99686.34
2023-02-06T11:22:53.893Z,99687.56
2023-02-06T11:25:31.148Z,99681.22
2023-02-06T11:28:00.566Z,99689.53
2023-02-06T11:30:33.452Z,99691.38
2023-02-06T11:33:05.153Z,99685.44
2023-02-06T11:35:35.929Z,99688.97
2023-02-06T11:38:16.030Z,99682.34
2023-02-06T11:40:44.217Z,99687.38
2023-02-06T11:43:21.496Z,99688.72
2023-02-06T11:45:52.126Z,99685.78
2023-02-06T11:48:33.704Z,99676.31
2023-02-06T11:51:01.267Z,99686.03
2023-02-06T11:53:30.563Z,99683.16
2023-02-06T11:56:17.294Z,99680.84
2023-02-06T11:58:46.207Z,99683.31
2023-02-06T12:01:20.661Z,99680.50
2023-02-06T12:03:55.732Z,99673.94
2023-02-06T12:06:31.146Z,99674.78
2023-02-06T12:09:01.780Z,99675.34
2023-02-06T12:11:34.901Z,99673.00
2023-02-06T12:14:10.231Z,99662.75
2023-02-06T12:16:40.439Z,99667.09
2023-02-06T12:19:16.612Z,99662.22
2023-02-06T12:21:49.173Z,99652.97
2023-02-06T12:24:30.827Z,99647.03
2023-02-06T12:27:01.736Z,99648.53
2023-02-06T12:29:35.616Z,99634.81
2023-02-06T12:32:09.370Z,99627.91
2023-02-06T12:34:50.130Z,99621.84
2023-02-06T12:37:22.182Z,99633.66
2023-02-06T12:39:53.064Z,99629.47
2023-02-06T12:42:40.021Z,99639.47
2023-02-06T12:45:21.331Z,99634.88
2023-02-06T12:47:53.342Z,99631.13
2023-02-06T12:50:25.632Z,99638.88
2023-02-06T12:52:59.726Z,99642.91
2023-02-06T12:55:32.749Z,99643.63
2023-02-06T12:58:00.422Z,99635.81
2023-02-06T13:00:51.299Z,99630.16
2023-02-06T13:03:29.656Z,99623.75
2023-02-06T13:06:03.761Z,99631.06
2023-02-06T13:08:42.116Z,99617.63
2023-02-06T13:11:23.654Z,99614.06
2023-02-06T13:13:59.302Z,99626.25
2023-02-06T13:16:43.804Z,99628.91
2023-02-06T13:19:22.899Z,99633.78
2023-02-06T13:21:55.277Z,99632.59
2023-02-06T13:24:22.994Z,99632.94
2023-02-06T13:27:15.062Z,99626.25
2023-02-06T13:29:44.460Z,99642.84
2023-02-06T13:32:46.180Z,99641.44
2023-02-06T13:35:20.457Z,99643.63
2023-02-06T13:37:50.220Z,99647.31
2023-02-06T13:40:31.971Z,99643.31
2023-02-06T13:43:05.512Z,99646.34
2023-02-06T13:45:38.464Z,99637.47
2023-02-06T13:48:46.342Z,99631.34
2023-02-06T13:51:46.636Z,99630.91
2023-02-06T13:54:33.899Z,99629.50
2023-02-06T13:57:23.771Z,99640.31
2023-02-06T13:59:56.100Z,99623.41
2023-02-06T14:02:29.865Z,99628.44
2023-02-06T14:04:58.309Z,99629.09
2023-02-06T14:08:01.797Z,99620.59
2023-02-06T14:10:44.710Z,99627.59
2023-02-06T14:13:28.442Z,99620.91
2023-02-06T14:16:17.063Z,99615.22
2023-02-06T14:18:51.797Z,99619.84
2023-02-06T14:21:37.256Z,99629.19
2023-02-06T14:24:22.974Z,99624.94
2023-02-06T14:27:01.852Z,99622.97
2023-02-06T14:29:40.943Z,99618.88
2023-02-06T14:32:28.323Z,99618.72
2023-02-06T14:35:13.711Z,99624.09
2023-02-06T14:37:58.767Z,99625.22
2023-02-06T14:40:28.454Z,99628.91
2023-02-06T14:42:58.377Z,99619.38
2023-02-06T14:45:33.823Z,99619.47
2023-02-06T14:48:19.108Z,99620.59
2023-02-06T14:50:50.413Z,99616.81
2023-02-06T14:53:24.378Z,99615.22
2023-02-06T14:55:52.428Z,99617.97
2023-02-06T14:58:25.833Z,99622.28
2023-02-06T15:00:53.477Z,99620.13
2023-02-06T15:03:25.579Z,99624.81
2023-02-06T15:06:01.310Z,99613.25
2023-02-06T15:08:28.816Z,99619.47
2023-02-06T15:11:00.088Z,99621.03
2023-02-06T15:13:34.669Z,99607.91
2023-02-06T15:16:03.875Z,99603.28
2023-02-06T15:18:33.565Z,99598.88
2023-02-06T15:21:03.032Z,99606.34
2023-02-06T15:23:43.812Z,99612.34
2023-02-06T15:26:21.993Z,99612.34
2023-02-06T15:28:56.185Z,99616.34
2023-02-06T15:31:24.937Z,99614.81
2023-02-06T15:33:55.900Z,99623.22
2023-02-06T15:36:31.148Z,99630.56
2023-02-06T15:38:59.294Z,99626.72
2023-02-06T15:41:28.616Z,99625.00
2023-02-06T15:44:01.228Z,99631.03
2023-02-06T15:46:30.173Z,99626.84
2023-02-06T15:48:59.170Z,99631.41
2023-02-06T15:51:28.885Z,99631.13
2023-02-06T15:54:08.185Z,99643.81
2023-02-06T15:56:38.125Z,99627.97
2023-02-06T15:59:13.295Z,99634.50
2023-02-06T16:01:42.134Z,99629.41
2023-02-06T16:04:18.349Z,99619.34
2023-02-06T16:06:46.601Z,99626.38
2023-02-06T16:09:21.631Z,99630.09
2023-02-06T16:11:53.780Z,99627.56
2023-02-06T16:14:25.042Z,99629.94
2023-02-06T16:17:00.937Z,99635.63
2023-02-06T16:19:39.636Z,99636.47
2023-02-06T16:22:15.868Z,99636.75
2023-02-06T16:24:43.378Z,99641.75
2023-02-06T16:27:22.562Z,99641.03
2023-02-06T16:29:52.655Z,99644.28
2023-02-06T16:32:25.695Z,99650.84
2023-02-06T16:34:55.404Z,99641.47
2023-02-06T16:37:26.586Z,99645.06
2023-02-06T16:39:54.366Z,99652.97
2023-02-06T16:42:25.690Z,99650.38
2023-02-06T16:44:55.768Z,99645.91
2023-02-06T16:47:24.180Z,99650.06
2023-02-06T16:49:52.031Z,99650.78
2023-02-06T16:52:25.388Z,99648.25
2023-02-06T16:54:53.802Z,99651.56
2023-02-06T16:57:26.910Z,99657.56
2023-02-06T16:59:54.510Z,99665.59
2023-02-06T17:02:22.272Z,99662.03
2023-02-06T17:04:49.796Z,99670.97
2023-02-06T17:07:19.071Z,99672.66
2023-02-06T17:09:49.463Z,99677.75
2023-02-06T17:12:19.270Z,99683.66
2023-02-06T17:14:48.598Z,99680.25
2023-02-06T17:17:18.617Z,99676.66
2023-02-06T17:19:47.035Z,99674.47
2023-02-06T17:22:15.099Z,99673.00
2023-02-06T17:24:43.694Z,99663.47
2023-02-06T17:27:16.918Z,99670.22
2023-02-06T17:29:47.265Z,99681.53
2023-02-06T17:32:16.041Z,99678.81
2023-02-06T17:34:43.527Z,99678.88
2023-02-06T17:37:20.640Z,99679.91
2023-02-06T17:39:49.681Z,99676.84
2023-02-06T17:42:18.504Z,99680.59
2023-02-06T17:44:46.008Z,99660.31
2023-02-06T17:47:13.532Z,99666.63
2023-02-06T17:49:41.034Z,99681.34
2023-02-06T17:52:08.524Z,99680.25
2023-02-06T17:54:36.280Z,99685.09
2023-02-06T17:57:03.747Z,99685.69
2023-02-06T17:59:32.556Z,99682.97
2023-02-06T18:02:01.170Z,99676.66
2023-02-06T18:04:29.290Z,99674.19
2023-02-06T18:06:56.799Z,99686.19
2023-02-06T18:09:24.335Z,99687.16
2023-02-06T18:11:51.783Z,99699.13
2023-02-06T18:14:19.266Z,99710.47
2023-02-06T18:16:48.083Z,99700.53
2023-02-06T18:19:15.662Z,99703.75
2023-02-06T18:21:43.132Z,99708.44
2023-02-06T18:24:10.584Z,99707.66
2023-02-06T18:26:38.027Z,99712.88
2023-02-06T18:29:05.729Z,99710.97
2023-02-06T18:31:35.781Z,99711.06
2023-02-06T18:34:07.719Z,99712.94
2023-02-06T18:36:35.450Z,99714.47
2023-02-06T18:39:03.273Z,99708.34
2023-02-06T18:41:48.532Z,99709.88
2023-02-06T18:44:16.135Z,99711.22
2023-02-06T18:46:43.791Z,99715.84
2023-02-06T18:49:12.629Z,99713.69
2023-02-06T18:51:40.111Z,99700.50
2023-02-06T18:54:09.815Z,99708.69
2023-02-06T18:56:37.797Z,99713.28
2023-02-06T18:59:06.517Z,99717.63
2023-02-06T19:01:34.073Z,99720.19
2023-02-06T19:04:01.601Z,99720.84
2023-02-06T19:06:35.212Z,99714.13
2023-02-06T19:09:06.816Z,99719.16
2023-02-06T19:11:34.632Z,99728.84
2023-02-06T19:14:02.155Z,99735.94
2023-02-06T19:16:30.263Z,99743.31
2023-02-06T19:18:57.767Z,99742.22
2023-02-06T19:21:26.619Z,99742.38
2023-02-06T19:23:57.816Z,99743.31
2023-02-06T19:26:25.809Z,99755.41
2023-02-06T19:28:53.567Z,99752.06
2023-02-06T19:31:24.059Z,99760.69
2023-02-06T19:33:53.991Z,99757.44
2023-02-06T19:36:22.712Z,99750.91
2023-02-06T19:38:51.406Z,99753.00
2023-02-06T19:41:23.704Z,99750.38
2023-02-06T19:43:52.595Z,99746.13
2023-02-06T19:46:22.858Z,99736.94
2023-02-06T19:48:51.761Z,99745.22
2023-02-06T19:51:22.333Z,99749.47
2023-02-06T19:53:51.172Z,99743.19
2023-02-06T19:56:23.339Z,99752.28
2023-02-06T19:58:54.823Z,99728.94
2023-02-06T20:01:22.971Z,99738.03
2023-02-06T20:03:50.762Z,99746.88
2023-02-06T20:06:19.559Z,99752.94
2023-02-06T20:08:47.406Z,99760.44
2023-02-06T20:11:17.067Z,99755.22
2023-02-06T20:13:47.163Z,99750.50
2023-02-06T20:16:15.870Z,99754.03
2023-02-06T20:18:43.358Z,99753.94
2023-02-06T20:21:21.508Z,99754.13
2023-02-06T20:23:51.015Z,99747.06
2023-02-06T20:26:19.973Z,99767.50
2023-02-06T20:28:49.206Z,99771.41
2023-02-06T20:31:17.368Z,99763.31
2023-02-06T20:33:45.412Z,99764.53
2023-02-06T20:36:15.271Z,99760.31
2023-02-06T20:38:43.225Z,99768.56
2023-02-06T20:41:11.383Z,99768.41
2023-02-06T20:43:39.397Z,99767.84
2023-02-06T20:46:09.298Z,99763.59
2023-02-06T20:48:37.532Z,99756.94
2023-02-06T20:51:06.327Z,99757.13
2023-02-06T20:53:33.806Z,99758.53
2023-02-06T20:56:01.277Z,99751.91
2023-02-06T20:58:29.327Z,99755.66
2023-02-06T21:00:57.070Z,99758.28
2023-02-06T21:03:26.155Z,99755.25
2023-02-06T21:05:57.815Z,99754.53
2023-02-06T21:08:27.982Z,99761.25
2023-02-06T21:10:55.497Z,99770.97
2023-02-06T21:13:23.042Z,99766.44
2023-02-06T21:15:52.557Z,99764.84
2023-02-06T21:18:20.858Z,99767.75
2023-02-06T21:20:50.630Z,99771.13
2023-02-06T21:23:18.454Z,99773.97
2023-02-06T21:25:51.508Z,99783.84
2023-02-06T21:28:19.583Z,99783.44
2023-02-06T21:30:47.321Z,99802.03
2023-02-06T21:33:14.854Z,99806.94
2023-02-06T21:35:51.168Z,99800.34
2023-02-06T21:38:19.173Z,99804.66
2023-02-06T21:40:47.002Z,99795.69
2023-02-06T21:43:15.679Z,99796.63
2023-02-06T21:45:43.489Z,99808.25
2023-02-06T21:48:10.988Z,99796.56
2023-02-06T21:50:40.548Z,99792.66
2023-02-06T21:53:10.388Z,99794.97
2023-02-06T21:55:42.751Z,99810.13
2023-02-06T21:58:10.247Z,99813.00
2023-02-06T22:00:38.026Z,99811.44
2023-02-06T22:03:05.572Z,99816.78
2023-02-06T22:05:33.053Z,99817.72
2023-02-06T22:08:00.533Z,99812.06
2023-02-06T22:10:29.466Z,99816.38
2023-02-06T22:12:56.988Z,99813.75
2023-02-06T22:15:24.643Z,99811.50
2023-02-06T22:17:52.076Z,99819.81
2023-02-06T22:20:19.611Z,99823.22
2023-02-06T22:22:47.186Z,99833.75
2023-02-06T22:25:14.647Z,99833.75
2023-02-06T22:27:43.918Z,99835.84
2023-02-06T22:30:12.108Z,99847.66
2023-02-06T22:32:41.069Z,99839.94
2023-02-06T22:35:08.832Z,99852.94
2023-02-06T22:37:36.379Z,99849.88
2023-02-06T22:40:04.359Z,99857.84
2023-02-06T22:42:31.832Z,99866.13
2023-02-06T22:45:00.620Z,99853.03
2023-02-06T22:47:28.271Z,99868.59
2023-02-06T22:49:55.777Z,99866.44
2023-02-06T22:52:40.321Z,99871.59
2023-02-06T22:55:09.348Z,99864.28
2023-02-06T22:57:37.197Z,99877.94
2023-02-06T23:00:11.484Z,99877.44
2023-02-06T23:02:39.760Z,99880.66
2023-02-06T23:05:07.508Z,99878.69
2023-02-06T23:07:34.961Z,99887.59
2023-02-06T23:10:02.565Z,99901.41
2023-02-06T23:12:30.064Z,99897.28
2023-02-06T23:14:57.690Z,99903.28
2023-02-06T23:17:26.552Z,99895.91
2023-02-06T23:19:54.098Z,99907.19
2023-02-06T23:22:21.576Z,99906.47
2023-02-06T23:24:50.769Z,99921.78
2023-02-06T23:27:19.573Z,99920.25
2023-02-06T23:29:47.051Z,99905.97
2023-02-06T23:32:14.535Z,99910.88
2023-02-06T23:34:43.346Z,99898.66
2023-02-06T23:37:10.886Z,99892.41
2023-02-06T23:39:38.354Z,99918.09
2023-02-06T23:42:05.869Z,99916.88
2023-02-06T23:44:33.339Z,99933.31
2023-02-06T23:47:00.809Z,99930.44
2023-02-06T23:49:28.346Z,99933.34
2023-02-06T23:51:57.146Z,99896.06
2023-02-06T23:54:24.634Z,99913.91
2023-02-06T23:56:52.101Z,99906.25
2023-02-06T23:59:19.558Z,99898.44
